createdAt,value
2023-05-10T00:01:18.443Z,12.59
2023-05-10T00:03:48.081Z,12.78
2023-05-10T00:06:15.524Z,12.75
2023-05-10T00:08:46.872Z,12.90
2023-05-10T00:11:13.583Z,13.23
2023-05-10T00:13:40.892Z,13.12
2023-05-10T00:16:11.925Z,12.85
2023-05-10T00:18:39.784Z,12.84
2023-05-10T00:21:09.360Z,12.57
2023-05-10T00:23:36.172Z,12.88
2023-05-10T00:26:03.292Z,12.44
2023-05-10T00:28:30.801Z,12.48
2023-05-10T00:30:57.498Z,12.65
2023-05-10T00:33:25.424Z,12.97
2023-05-10T00:35:53.601Z,12.78
2023-05-10T00:38:21.879Z,12.44
2023-05-10T00:40:48.850Z,12.43
2023-05-10T00:43:18.881Z,12.38
2023-05-10T00:45:46.370Z,12.22
2023-05-10T00:48:13.662Z,12.08
2023-05-10T00:50:44.588Z,12.23
2023-05-10T00:53:11.565Z,12.33
2023-05-10T00:55:38.755Z,12.14
2023-05-10T00:58:06.757Z,12.35
2023-05-10T01:00:34.612Z,12.43
2023-05-10T01:03:01.957Z,12.02
2023-05-10T01:05:29.489Z,12.03
2023-05-10T01:07:57.660Z,12.20
2023-05-10T01:10:25.148Z,12.14
2023-05-10T01:12:51.905Z,12.42
2023-05-10T01:15:21.733Z,12.55
2023-05-10T01:17:49.737Z,12.24
2023-05-10T01:20:19.597Z,12.42
2023-05-10T01:23:08.415Z,12.39
2023-05-10T01:26:09.787Z,11.97
2023-05-10T01:28:59.498Z,12.05
2023-05-10T01:31:55.053Z,11.92
2023-05-10T01:34:27.377Z,11.95
2023-05-10T01:37:04.885Z,11.70
2023-05-10T01:39:44.685Z,11.71
2023-05-10T01:42:20.080Z,11.88
2023-05-10T01:44:56.502Z,11.78
2023-05-10T01:47:29.092Z,11.79
2023-05-10T01:49:56.377Z,11.72
2023-05-10T01:52:31.739Z,11.79
2023-05-10T01:55:09.982Z,11.61
2023-05-10T01:57:38.347Z,11.59
2023-05-10T02:00:10.876Z,11.59
2023-05-10T02:02:42.203Z,11.55
2023-05-10T02:05:09.105Z,11.51
2023-05-10T02:07:37.048Z,11.30
2023-05-10T02:10:23.996Z,11.53
2023-05-10T02:12:51.326Z,11.30
2023-05-10T02:15:21.634Z,11.33
2023-05-10T02:17:49.762Z,11.34
2023-05-10T02:20:17.545Z,11.35
2023-05-10T02:22:44.733Z,11.50
2023-05-10T02:25:11.773Z,11.45
2023-05-10T02:27:38.876Z,11.38
2023-05-10T02:30:08.594Z,11.59
2023-05-10T02:32:35.747Z,11.43
2023-05-10T02:35:05.657Z,11.51
2023-05-10T02:37:32.473Z,11.58
2023-05-10T02:39:59.631Z,11.39
2023-05-10T02:42:36.297Z,11.31
2023-05-10T02:45:04.529Z,11.33
2023-05-10T02:47:34.255Z,11.43
2023-05-10T02:50:01.380Z,11.16
2023-05-10T02:52:30.084Z,11.12
2023-05-10T02:54:57.276Z,11.12
2023-05-10T02:57:27.753Z,10.93
2023-05-10T02:59:55.210Z,11.03
2023-05-10T03:02:22.322Z,10.99
2023-05-10T03:04:49.093Z,10.75
2023-05-10T03:07:15.895Z,11.01
2023-05-10T03:09:42.578Z,10.67
2023-05-10T03:12:17.214Z,10.73
2023-05-10T03:15:09.423Z,10.52
2023-05-10T03:17:54.386Z,10.48
2023-05-10T03:20:44.687Z,10.75
2023-05-10T03:23:28.684Z,10.74
2023-05-10T03:25:56.152Z,10.76
2023-05-10T03:28:23.902Z,10.99
2023-05-10T03:30:50.691Z,11.20
2023-05-10T03:33:17.778Z,11.41
2023-05-10T03:35:44.876Z,11.32
2023-05-10T03:38:12.176Z,11.71
2023-05-10T03:40:38.917Z,12.18
2023-05-10T03:43:08.742Z,11.68
2023-05-10T03:45:35.869Z,11.38
2023-05-10T03:48:02.606Z,11.87
2023-05-10T03:50:29.862Z,12.02
2023-05-10T03:52:56.991Z,11.15
2023-05-10T03:55:23.920Z,11.08
2023-05-10T03:57:51.387Z,10.89
2023-05-10T04:00:21.040Z,10.53
2023-05-10T04:02:50.524Z,10.43
2023-05-10T04:05:20.239Z,10.40
2023-05-10T04:07:49.786Z,10.48
2023-05-10T04:10:17.237Z,10.61
2023-05-10T04:12:45.480Z,10.44
2023-05-10T04:15:12.600Z,10.28
2023-05-10T04:17:39.771Z,10.22
2023-05-10T04:20:08.852Z,10.25
2023-05-10T04:22:35.596Z,10.29
2023-05-10T04:25:02.753Z,10.33
2023-05-10T04:27:29.790Z,10.53
2023-05-10T04:29:57.684Z,10.63
2023-05-10T04:32:24.701Z,10.73
2023-05-10T04:34:51.640Z,10.40
2023-05-10T04:37:18.580Z,10.54
2023-05-10T04:39:46.896Z,10.58
2023-05-10T04:42:16.424Z,10.75
2023-05-10T04:44:46.612Z,11.05
2023-05-10T04:47:13.715Z,11.10
2023-05-10T04:49:40.413Z,11.42
2023-05-10T04:52:08.137Z,11.13
2023-05-10T04:54:35.261Z,11.56
2023-05-10T04:57:02.404Z,11.39
2023-05-10T04:59:29.138Z,11.31
2023-05-10T05:01:55.836Z,11.68
2023-05-10T05:04:22.623Z,11.38
2023-05-10T05:06:50.242Z,11.75
2023-05-10T05:09:18.792Z,12.17
2023-05-10T05:11:46.917Z,11.85
2023-05-10T05:14:13.881Z,12.44
2023-05-10T05:16:40.979Z,11.81
2023-05-10T05:19:08.134Z,11.64
2023-05-10T05:21:34.868Z,11.53
2023-05-10T05:24:01.900Z,11.40
2023-05-10T05:26:29.757Z,11.12
2023-05-10T05:28:59.042Z,11.22
2023-05-10T05:31:28.803Z,11.00
2023-05-10T05:33:55.929Z,11.12
2023-05-10T05:36:22.663Z,12.02
2023-05-10T05:38:49.637Z,12.06
2023-05-10T05:41:16.774Z,12.22
2023-05-10T05:43:46.307Z,11.49
2023-05-10T05:46:13.442Z,12.43
2023-05-10T05:48:40.625Z,11.80
2023-05-10T05:51:07.751Z,11.74
2023-05-10T05:53:34.946Z,12.16
2023-05-10T05:56:04.770Z,12.17
2023-05-10T05:58:32.001Z,12.99
2023-05-10T06:01:01.404Z,13.03
2023-05-10T06:03:28.443Z,13.47
2023-05-10T06:05:56.455Z,13.62
2023-05-10T06:08:23.533Z,12.26
2023-05-10T06:10:50.984Z,12.77
2023-05-10T06:13:17.830Z,12.88
2023-05-10T06:15:45.853Z,13.91
2023-05-10T06:18:13.336Z,12.43
2023-05-10T06:20:41.945Z,12.79
2023-05-10T06:23:11.646Z,12.38
2023-05-10T06:25:38.632Z,12.57
2023-05-10T06:28:06.373Z,12.90
2023-05-10T06:30:33.400Z,12.33
2023-05-10T06:33:00.568Z,12.56
2023-05-10T06:35:30.125Z,12.86
2023-05-10T06:38:02.081Z,13.06
2023-05-10T06:40:30.774Z,13.26
2023-05-10T06:42:57.905Z,13.71
2023-05-10T06:45:25.016Z,13.79
2023-05-10T06:47:52.244Z,13.72
2023-05-10T06:50:19.458Z,14.44
2023-05-10T06:52:47.176Z,13.40
2023-05-10T06:55:14.375Z,12.95
2023-05-10T06:57:41.220Z,12.15
2023-05-10T07:00:09.931Z,12.21
2023-05-10T07:02:36.765Z,12.86
2023-05-10T07:05:04.143Z,12.94
2023-05-10T07:07:31.402Z,13.10
2023-05-10T07:09:58.258Z,12.81
2023-05-10T07:12:25.712Z,12.43
2023-05-10T07:14:52.527Z,12.62
2023-05-10T07:17:19.581Z,12.54
2023-05-10T07:19:46.750Z,12.91
2023-05-10T07:22:16.379Z,13.52
2023-05-10T07:24:43.549Z,12.95
2023-05-10T07:27:10.355Z,12.98
2023-05-10T07:29:37.053Z,12.97
2023-05-10T07:32:03.764Z,12.74
2023-05-10T07:34:31.027Z,12.81
2023-05-10T07:36:59.413Z,12.97
2023-05-10T07:39:29.460Z,12.81
2023-05-10T07:41:56.379Z,12.59
2023-05-10T07:44:23.170Z,12.98
2023-05-10T07:46:50.645Z,13.15
2023-05-10T07:49:18.156Z,13.43
2023-05-10T07:51:45.308Z,13.14
2023-05-10T07:54:12.413Z,14.07
2023-05-10T07:56:39.752Z,13.67
2023-05-10T07:59:08.134Z,13.88
2023-05-10T08:01:36.413Z,13.78
2023-05-10T08:04:03.665Z,13.83
2023-05-10T08:06:30.511Z,14.05
2023-05-10T08:08:57.241Z,13.17
2023-05-10T08:11:24.047Z,13.50
2023-05-10T08:13:50.931Z,13.52
2023-05-10T08:16:20.032Z,13.86
2023-05-10T08:18:47.251Z,13.62
2023-05-10T08:21:16.831Z,13.42
2023-05-10T08:23:43.605Z,13.65
2023-05-10T08:26:10.312Z,13.57
2023-05-10T08:28:38.202Z,13.92
2023-05-10T08:31:06.225Z,14.00
2023-05-10T08:33:33.121Z,14.67
2023-05-10T08:36:00.877Z,14.37
2023-05-10T08:38:27.823Z,14.22
2023-05-10T08:40:55.351Z,14.19
2023-05-10T08:43:22.082Z,14.59
2023-05-10T08:45:49.462Z,14.75
2023-05-10T08:48:16.198Z,14.47
2023-05-10T08:50:43.407Z,14.05
2023-05-10T08:53:15.813Z,14.34
2023-05-10T08:55:42.928Z,14.32
2023-05-10T08:58:10.045Z,14.33
2023-05-10T09:00:36.824Z,14.89
2023-05-10T09:03:04.751Z,15.03
2023-05-10T09:05:31.595Z,14.36
2023-05-10T09:07:58.865Z,13.92
2023-05-10T09:10:25.658Z,13.84
2023-05-10T09:12:52.726Z,13.67
2023-05-10T09:15:19.990Z,14.05
2023-05-10T09:17:46.873Z,14.79
2023-05-10T09:20:13.610Z,14.31
2023-05-10T09:22:40.329Z,14.28
2023-05-10T09:25:15.425Z,14.77
2023-05-10T09:27:48.512Z,14.68
2023-05-10T09:30:31.048Z,14.41
2023-05-10T09:33:02.015Z,14.56
2023-05-10T09:35:30.162Z,15.11
2023-05-10T09:37:58.549Z,14.71
2023-05-10T09:40:26.002Z,15.15
2023-05-10T09:42:57.037Z,14.95
2023-05-10T09:45:28.140Z,15.08
2023-05-10T09:47:57.994Z,14.64
2023-05-10T09:50:25.536Z,14.80
2023-05-10T09:53:02.380Z,14.50
2023-05-10T09:55:47.501Z,13.80
2023-05-10T09:58:14.475Z,14.01
2023-05-10T10:00:44.975Z,14.39
2023-05-10T10:03:16.026Z,14.28
2023-05-10T10:05:42.781Z,14.27
2023-05-10T10:08:12.736Z,14.32
2023-05-10T10:10:39.962Z,14.51
2023-05-10T10:13:08.450Z,14.73
2023-05-10T10:15:35.885Z,14.60
2023-05-10T10:18:05.601Z,14.52
2023-05-10T10:20:33.548Z,14.68
2023-05-10T10:23:01.439Z,14.83
2023-05-10T10:25:29.449Z,14.51
2023-05-10T10:28:15.901Z,14.88
2023-05-10T10:30:49.774Z,15.00
2023-05-10T10:33:48.129Z,15.50
2023-05-10T10:36:16.377Z,15.28
2023-05-10T10:38:55.558Z,15.98
2023-05-10T10:41:37.705Z,15.95
2023-05-10T10:44:23.809Z,15.99
2023-05-10T10:47:12.197Z,16.20
2023-05-10T10:49:44.619Z,16.16
2023-05-10T10:52:40.821Z,16.17
2023-05-10T10:55:36.803Z,15.80
2023-05-10T10:58:04.075Z,15.27
2023-05-10T11:00:38.376Z,15.64
2023-05-10T11:03:12.059Z,15.93
2023-05-10T11:05:45.993Z,15.57
2023-05-10T11:08:14.594Z,15.63
2023-05-10T11:10:42.193Z,15.89
2023-05-10T11:13:09.791Z,15.18
2023-05-10T11:15:37.909Z,15.27
2023-05-10T11:18:30.692Z,15.36
2023-05-10T11:21:01.614Z,15.19
2023-05-10T11:23:48.619Z,15.07
2023-05-10T11:26:16.820Z,15.55
2023-05-10T11:28:51.415Z,15.80
2023-05-10T11:31:24.914Z,16.45
2023-05-10T11:33:53.234Z,16.74
2023-05-10T11:36:21.863Z,16.93
2023-05-10T11:38:48.679Z,16.41
2023-05-10T11:41:16.785Z,16.73
2023-05-10T11:43:43.557Z,16.18
2023-05-10T11:46:13.616Z,16.47
2023-05-10T11:48:41.066Z,16.42
2023-05-10T11:51:09.526Z,16.44
2023-05-10T11:53:36.247Z,15.60
2023-05-10T11:56:10.531Z,15.97
2023-05-10T11:58:38.073Z,16.16
2023-05-10T12:01:06.281Z,16.32
2023-05-10T12:03:33.955Z,16.86
2023-05-10T12:06:01.367Z,16.29
2023-05-10T12:08:29.020Z,16.67
2023-05-10T12:11:07.635Z,17.13
2023-05-10T12:13:42.495Z,17.45
2023-05-10T12:16:22.511Z,16.79
2023-05-10T12:18:50.037Z,16.98
2023-05-10T12:21:19.996Z,16.60
2023-05-10T12:23:50.741Z,16.94
2023-05-10T12:26:17.925Z,16.75
2023-05-10T12:28:44.600Z,16.99
2023-05-10T12:31:14.079Z,17.11
2023-05-10T12:33:42.782Z,17.05
2023-05-10T12:36:18.810Z,17.59
2023-05-10T12:38:46.086Z,17.26
2023-05-10T12:41:17.477Z,17.73
2023-05-10T12:43:47.171Z,17.26
2023-05-10T12:46:15.381Z,17.76
2023-05-10T12:48:42.477Z,17.56
2023-05-10T12:51:09.275Z,17.28
2023-05-10T12:53:36.793Z,16.74
2023-05-10T12:56:04.877Z,16.60
2023-05-10T12:58:35.968Z,16.91
2023-05-10T13:01:03.308Z,16.80
2023-05-10T13:03:30.626Z,17.04
2023-05-10T13:05:57.774Z,17.28
2023-05-10T13:08:27.326Z,16.85
2023-05-10T13:10:54.406Z,16.61
2023-05-10T13:13:21.184Z,16.29
2023-05-10T13:15:50.763Z,16.70
2023-05-10T13:18:20.331Z,17.20
2023-05-10T13:20:49.930Z,17.19
2023-05-10T13:23:16.677Z,16.02
2023-05-10T13:25:44.702Z,16.37
2023-05-10T13:28:14.250Z,16.41
2023-05-10T13:30:43.844Z,16.40
2023-05-10T13:33:10.910Z,17.04
2023-05-10T13:35:38.031Z,17.29
2023-05-10T13:38:07.566Z,17.05
2023-05-10T13:40:37.132Z,16.92
2023-05-10T13:43:04.319Z,16.12
2023-05-10T13:45:33.870Z,15.75
2023-05-10T13:48:00.639Z,15.93
2023-05-10T13:50:27.778Z,16.48
2023-05-10T13:52:58.934Z,16.35
2023-05-10T13:55:25.706Z,15.77
2023-05-10T13:57:52.844Z,15.78
2023-05-10T14:00:20.531Z,16.05
2023-05-10T14:02:50.136Z,16.22
2023-05-10T14:05:22.363Z,16.38
2023-05-10T14:07:56.944Z,16.75
2023-05-10T14:10:24.025Z,17.09
2023-05-10T14:12:50.958Z,17.21
2023-05-10T14:15:17.943Z,16.28
2023-05-10T14:17:46.074Z,16.03
2023-05-10T14:20:12.813Z,15.81
2023-05-10T14:22:39.568Z,15.57
2023-05-10T14:25:06.928Z,15.90
2023-05-10T14:27:34.041Z,16.19
2023-05-10T14:30:03.433Z,15.96
2023-05-10T14:32:30.617Z,16.09
2023-05-10T14:34:57.356Z,16.15
2023-05-10T14:37:24.050Z,15.45
2023-05-10T14:39:50.938Z,15.84
2023-05-10T14:42:18.037Z,16.08
2023-05-10T14:44:45.823Z,15.69
2023-05-10T14:47:12.537Z,15.46
2023-05-10T14:49:39.817Z,15.43
2023-05-10T14:52:06.771Z,15.39
2023-05-10T14:54:33.796Z,14.94
2023-05-10T14:57:00.791Z,15.09
2023-05-10T14:59:27.812Z,15.14
2023-05-10T15:01:55.133Z,15.07
2023-05-10T15:04:23.162Z,15.12
2023-05-10T15:06:50.970Z,15.61
2023-05-10T15:09:18.028Z,15.51
2023-05-10T15:11:45.911Z,15.22
2023-05-10T15:14:15.402Z,15.45
2023-05-10T15:16:42.459Z,15.87
2023-05-10T15:19:09.688Z,15.64
2023-05-10T15:21:36.974Z,14.95
2023-05-10T15:24:05.005Z,14.95
2023-05-10T15:26:33.037Z,15.40
2023-05-10T15:29:00.016Z,14.51
2023-05-10T15:31:26.749Z,15.38
2023-05-10T15:33:57.702Z,15.50
2023-05-10T15:36:24.444Z,15.61
2023-05-10T15:38:51.543Z,15.33
2023-05-10T15:41:18.330Z,15.25
2023-05-10T15:43:45.952Z,15.40
2023-05-10T15:46:13.152Z,15.09
2023-05-10T15:48:39.929Z,15.13
2023-05-10T15:51:07.891Z,15.75
2023-05-10T15:53:34.601Z,15.25
2023-05-10T15:56:04.681Z,14.41
2023-05-10T15:58:31.843Z,14.45
2023-05-10T16:00:59.730Z,14.55
2023-05-10T16:03:26.746Z,14.71
2023-05-10T16:05:53.887Z,14.59
2023-05-10T16:08:20.586Z,14.64
2023-05-10T16:10:47.331Z,14.48
2023-05-10T16:13:15.024Z,14.31
2023-05-10T16:15:44.675Z,14.64
2023-05-10T16:18:11.390Z,14.75
2023-05-10T16:20:38.722Z,14.83
2023-05-10T16:23:06.392Z,15.16
2023-05-10T16:25:33.315Z,14.93
2023-05-10T16:28:02.854Z,14.74
2023-05-10T16:30:29.857Z,14.37
2023-05-10T16:32:57.192Z,14.62
2023-05-10T16:35:24.002Z,14.43
2023-05-10T16:37:51.205Z,14.66
2023-05-10T16:40:20.754Z,14.20
2023-05-10T16:42:49.162Z,14.42
2023-05-10T16:45:17.623Z,13.88
2023-05-10T16:47:45.232Z,13.89
2023-05-10T16:50:12.794Z,13.81
2023-05-10T16:52:40.048Z,14.03
2023-05-10T16:55:08.059Z,14.10
2023-05-10T16:57:35.478Z,14.76
2023-05-10T17:00:02.367Z,14.54
2023-05-10T17:02:29.678Z,14.35
2023-05-10T17:04:56.502Z,14.25
2023-05-10T17:07:26.076Z,14.13
2023-05-10T17:09:54.095Z,13.98
2023-05-10T17:12:21.281Z,13.68
2023-05-10T17:14:47.980Z,13.65
2023-05-10T17:17:15.085Z,13.63
2023-05-10T17:19:42.213Z,13.94
2023-05-10T17:22:09.443Z,13.66
2023-05-10T17:24:36.661Z,14.02
2023-05-10T17:27:04.145Z,14.23
2023-05-10T17:29:30.861Z,14.50
2023-05-10T17:32:07.557Z,14.61
2023-05-10T17:34:37.940Z,14.84
2023-05-10T17:37:06.173Z,14.65
2023-05-10T17:39:32.945Z,15.06
2023-05-10T17:42:00.781Z,14.64
2023-05-10T17:44:32.904Z,14.86
2023-05-10T17:46:59.990Z,14.57
2023-05-10T17:49:26.980Z,15.01
2023-05-10T17:51:54.187Z,15.06
2023-05-10T17:54:21.266Z,16.10
2023-05-10T17:56:53.143Z,17.80
2023-05-10T17:59:20.887Z,18.71
2023-05-10T18:01:47.659Z,18.24
2023-05-10T18:04:14.847Z,19.37
2023-05-10T18:06:42.155Z,19.10
2023-05-10T18:09:11.648Z,19.62
2023-05-10T18:11:38.317Z,18.16
2023-05-10T18:14:06.417Z,18.19
2023-05-10T18:16:33.614Z,16.45
2023-05-10T18:19:03.282Z,15.30
2023-05-10T18:21:32.943Z,16.14
2023-05-10T18:24:00.677Z,16.77
2023-05-10T18:26:30.197Z,16.51
2023-05-10T18:28:59.146Z,16.16
2023-05-10T18:31:29.323Z,16.40
2023-05-10T18:33:56.122Z,15.89
2023-05-10T18:36:24.258Z,15.52
2023-05-10T18:38:52.143Z,15.52
2023-05-10T18:41:19.235Z,14.84
2023-05-10T18:43:48.883Z,14.41
2023-05-10T18:46:16.027Z,14.40
2023-05-10T18:48:45.525Z,14.35
2023-05-10T18:51:12.292Z,13.75
2023-05-10T18:53:41.812Z,12.72
2023-05-10T18:56:08.910Z,12.22
2023-05-10T18:58:38.133Z,12.36
2023-05-10T19:01:04.872Z,12.96
2023-05-10T19:03:31.559Z,13.12
2023-05-10T19:05:58.702Z,13.83
2023-05-10T19:08:25.959Z,12.79
2023-05-10T19:10:52.722Z,11.36
2023-05-10T19:13:19.727Z,11.07
2023-05-10T19:16:09.233Z,10.29
2023-05-10T19:18:39.151Z,10.32
2023-05-10T19:21:13.323Z,10.38
2023-05-10T19:23:40.367Z,10.93
2023-05-10T19:26:27.513Z,11.89
2023-05-10T19:28:57.669Z,12.07
2023-05-10T19:31:24.990Z,11.02
2023-05-10T19:33:52.865Z,10.25
2023-05-10T19:36:20.917Z,10.53
2023-05-10T19:38:52.358Z,10.42
2023-05-10T19:41:22.040Z,9.86
2023-05-10T19:43:50.378Z,10.34
2023-05-10T19:46:19.453Z,10.16
2023-05-10T19:48:47.565Z,10.31
2023-05-10T19:51:17.540Z,10.11
2023-05-10T19:53:44.644Z,9.62
2023-05-10T19:56:15.034Z,9.60
2023-05-10T19:58:48.187Z,9.79
2023-05-10T20:01:15.468Z,9.75
2023-05-10T20:03:43.299Z,9.63
2023-05-10T20:06:13.064Z,9.44
2023-05-10T20:08:43.563Z,9.02
2023-05-10T20:11:10.366Z,8.92
2023-05-10T20:13:37.143Z,9.12
2023-05-10T20:16:04.339Z,9.94
2023-05-10T20:18:32.178Z,9.89
2023-05-10T20:21:00.994Z,9.71
2023-05-10T20:23:29.058Z,9.43
2023-05-10T20:26:00.886Z,9.35
2023-05-10T20:28:28.981Z,9.45
2023-05-10T20:30:57.025Z,10.29
2023-05-10T20:33:24.920Z,10.11
2023-05-10T20:35:51.901Z,9.79
2023-05-10T20:38:18.659Z,9.54
2023-05-10T20:40:46.085Z,9.53
2023-05-10T20:43:13.230Z,9.46
2023-05-10T20:45:41.164Z,9.53
2023-05-10T20:48:12.132Z,9.74
2023-05-10T20:50:43.297Z,9.66
2023-05-10T20:53:10.431Z,9.64
2023-05-10T20:55:37.853Z,9.52
2023-05-10T20:58:05.342Z,9.67
2023-05-10T21:00:33.936Z,10.04
2023-05-10T21:03:00.728Z,10.16
2023-05-10T21:05:30.315Z,10.31
2023-05-10T21:07:57.364Z,10.54
2023-05-10T21:10:25.110Z,10.37
2023-05-10T21:12:56.340Z,9.73
2023-05-10T21:15:23.868Z,9.82
2023-05-10T21:17:55.221Z,10.31
2023-05-10T21:20:23.484Z,9.82
2023-05-10T21:22:50.939Z,9.51
2023-05-10T21:25:22.879Z,10.13
2023-05-10T21:27:52.109Z,9.43
2023-05-10T21:30:19.848Z,9.99
2023-05-10T21:32:47.602Z,9.67
2023-05-10T21:35:14.776Z,9.36
2023-05-10T21:37:45.688Z,9.60
2023-05-10T21:40:13.912Z,9.98
2023-05-10T21:42:44.334Z,9.44
2023-05-10T21:45:11.558Z,9.21
2023-05-10T21:47:38.288Z,9.13
2023-05-10T21:50:06.530Z,8.88
2023-05-10T21:52:34.298Z,9.48
2023-05-10T21:55:01.883Z,8.91
2023-05-10T21:57:28.978Z,9.77
2023-05-10T21:59:56.655Z,9.77
2023-05-10T22:02:24.055Z,9.10
2023-05-10T22:04:51.580Z,9.06
2023-05-10T22:07:18.704Z,9.12
2023-05-10T22:09:51.178Z,9.10
2023-05-10T22:12:19.342Z,9.41
2023-05-10T22:14:48.575Z,9.37
2023-05-10T22:17:18.083Z,9.47
2023-05-10T22:19:45.173Z,9.71
2023-05-10T22:22:13.711Z,9.78
2023-05-10T22:24:42.454Z,9.99
2023-05-10T22:27:10.257Z,10.61
2023-05-10T22:29:39.789Z,10.35
2023-05-10T22:32:07.057Z,9.90
2023-05-10T22:34:34.604Z,9.76
2023-05-10T22:37:03.246Z,9.79
2023-05-10T22:39:31.913Z,9.82
2023-05-10T22:42:02.000Z,9.70
2023-05-10T22:44:31.554Z,9.94
2023-05-10T22:47:01.052Z,9.89
2023-05-10T22:49:29.505Z,9.79
2023-05-10T22:51:58.920Z,9.90
2023-05-10T22:54:26.798Z,10.00
2023-05-10T22:56:54.004Z,9.80
2023-05-10T22:59:20.975Z,9.79
2023-05-10T23:01:48.412Z,10.09
2023-05-10T23:04:15.569Z,10.59
2023-05-10T23:06:47.825Z,10.61
2023-05-10T23:09:14.525Z,9.88
2023-05-10T23:11:42.085Z,9.94
2023-05-10T23:14:09.334Z,9.82
2023-05-10T23:16:36.474Z,9.93
2023-05-10T23:19:07.295Z,9.86
2023-05-10T23:21:36.986Z,9.91
2023-05-10T23:24:05.351Z,9.76
2023-05-10T23:26:35.427Z,9.87
2023-05-10T23:29:05.129Z,9.88
2023-05-10T23:31:33.474Z,9.79
2023-05-10T23:34:01.815Z,9.70
2023-05-10T23:36:31.425Z,9.78
2023-05-10T23:38:59.459Z,10.05
2023-05-10T23:41:27.369Z,9.94
2023-05-10T23:43:57.925Z,10.15
2023-05-10T23:46:25.134Z,10.04
2023-05-10T23:48:57.333Z,9.94
2023-05-10T23:51:24.886Z,10.00
2023-05-10T23:53:52.244Z,9.94
2023-05-10T23:56:20.881Z,10.22
2023-05-10T23:58:49.026Z,10.70
